Algodones, NM

6:10 PM MDT on April 21, 2015 (GMT -0600)
Albuquerque International Sunport | | Change Station
CLOSE
Current Station
Airport
Location: Albuquerque,
Elevation: 5312 ft
Nearby Weather Stations

Elev 5312 ft 35.04 °N, 106.61 °W | Updated 18 minutes ago

Partly Cloudy
Partly Cloudy
72 °F
Feels Like 72 °F
N
13
Wind Variable Wind from SSE

Today
High -- | Low -- °F
--% Chance of Precip.
Yesterday
High -- | Low -- °F
Precip. -- in
6:26 AM 7:43 PM
Waxing Crescent, 13% visible
Pressure 29.72 in
Visibility 10.0 miles
Clouds Scattered Clouds 12000 ft
Mostly Cloudy 20000 ft
Dew Point 21 °F
Humidity 15%
Rainfall 0.00 in
Snow Depth Not available.
UV 1 out of 12
Pollen 9.20 out of 12
Air Quality Not available.
Flu Activity Local Activity
METAR KABQ 212352Z 15011KT 10SM SCT120 BKN200 22/M06 A2989 RMK AO2 SLP063 VIRGA SW-NW T02221061 10239 20200 56014

More Conditions Fewer Conditions

Pressure 29.72 in
Visibility 10.0 miles
Clouds Scattered Clouds 12000 ft
Mostly Cloudy 20000 ft
Dew Point 21 °F
Humidity 15%
Rainfall 0.00 in
Snow Depth Not available.
UV 1 out of 12
Pollen 9.20 out of 12
Air Quality Not available.
Flu Activity Local Activity
METAR KABQ 212352Z 15011KT 10SM SCT120 BKN200 22/M06 A2989 RMK AO2 SLP063 VIRGA SW-NW T02221061 10239 20200 56014

More Conditions Fewer Conditions

Nowcast | as of 3:08 PM MDT on April 21, 2015

Isolated showers and thunderstorms will continue over central New Mexico through the remainder of this afternoon. This activity will produce little rain...but wind gusts around 50 mph will be possible in and around the stronger activity.

×

10-Day Weather Forecast

Almanac

Astronomy

Apr. 21, 2015 Rise Set
Actual Time
Civil Twilight
Nautical Twilight
Astronomical Twilight
Moon
Length of Visible Light
Length of Day
Tomorrow will be .
, % of the Moon is Illuminated

Today's Extremes

State Highs State Lows

Community

WunderPhotos

Upload Photos

1,815,586 photos uploaded!

WunderBlogs® & News

Nearby

Air Quality

  Air Quality AQ Index Pollutant
Not available.

Snow Depth

Station Depth Elevation

Earthquake Activity

City Distance Mag. Time & Date
Minimum magnitude displayed is 2.5.

Coastal Water Temperatures

Place Temperature

Stations

Nearby Weather Stations

Station Location Temp. Windchill Dew Point Humidity Wind Precip. Elev Updated Type